createdAt,value
2022-12-03T00:00:38.263Z,8.82
2022-12-03T00:03:11.353Z,8.98
2022-12-03T00:05:48.816Z,8.30
2022-12-03T00:08:19.500Z,8.68
2022-12-03T00:10:49.152Z,8.27
2022-12-03T00:13:16.181Z,8.00
2022-12-03T00:15:43.648Z,8.88
2022-12-03T00:18:10.757Z,9.05
2022-12-03T00:20:49.686Z,9.00
2022-12-03T00:23:28.330Z,11.48
2022-12-03T00:25:55.391Z,12.00
2022-12-03T00:28:26.100Z,10.75
2022-12-03T00:30:55.830Z,10.88
2022-12-03T00:33:28.462Z,11.27
2022-12-03T00:38:23.638Z,10.88
2022-12-03T00:40:56.861Z,10.43
2022-12-03T00:43:29.501Z,10.45
2022-12-03T00:45:58.103Z,9.80
2022-12-03T00:48:27.791Z,10.13
2022-12-03T00:51:00.727Z,10.25
2022-12-03T00:53:27.971Z,9.00
2022-12-03T00:55:54.858Z,10.07
2022-12-03T00:58:22.919Z,9.88
2022-12-03T01:00:55.825Z,10.70
2022-12-03T01:03:25.859Z,10.45
2022-12-03T01:05:53.191Z,10.18
2022-12-03T01:08:32.099Z,10.20
2022-12-03T01:10:58.881Z,10.00
2022-12-03T01:13:30.597Z,10.50
2022-12-03T01:16:05.994Z,11.20
2022-12-03T01:18:35.424Z,9.80
2022-12-03T01:21:08.517Z,9.95
2022-12-03T01:23:40.837Z,9.98
2022-12-03T01:26:19.442Z,10.73
2022-12-03T01:28:49.605Z,9.60
2022-12-03T01:31:45.680Z,9.73
2022-12-03T01:34:17.991Z,10.27
2022-12-03T01:36:54.878Z,10.20
2022-12-03T01:39:24.770Z,10.48
2022-12-03T01:41:58.874Z,10.00
2022-12-03T01:44:32.927Z,10.63
2022-12-03T01:47:07.798Z,10.85
2022-12-03T01:50:03.818Z,9.93
2022-12-03T01:52:39.510Z,8.48
2022-12-03T01:55:20.185Z,10.85
2022-12-03T01:58:06.411Z,10.65
2022-12-03T02:00:37.521Z,10.35
2022-12-03T02:03:12.194Z,11.38
2022-12-03T02:05:39.427Z,13.10
2022-12-03T02:08:33.724Z,12.48
2022-12-03T02:11:09.175Z,12.55
2022-12-03T02:13:39.043Z,13.05
2022-12-03T02:16:06.325Z,12.52
2022-12-03T02:18:33.410Z,13.20
2022-12-03T02:21:17.209Z,13.20
2022-12-03T02:23:53.038Z,13.07
2022-12-03T02:26:19.960Z,12.85
2022-12-03T02:28:51.804Z,12.45
2022-12-03T02:31:18.819Z,13.20
2022-12-03T02:33:45.839Z,13.13
2022-12-03T02:36:13.412Z,13.65
2022-12-03T02:38:42.144Z,12.98
2022-12-03T02:41:34.619Z,12.82
2022-12-03T02:44:02.562Z,13.70
2022-12-03T02:46:29.926Z,14.30
2022-12-03T02:48:57.506Z,14.00
2022-12-03T02:51:27.494Z,13.98
2022-12-03T02:53:56.698Z,13.93
2022-12-03T02:56:29.995Z,15.77
2022-12-03T02:59:01.476Z,14.75
2022-12-03T03:01:28.488Z,15.13
2022-12-03T03:03:56.271Z,15.10
2022-12-03T03:06:23.384Z,14.85
2022-12-03T03:08:50.481Z,13.75
2022-12-03T03:11:22.001Z,13.50
2022-12-03T03:13:48.934Z,14.60
2022-12-03T03:16:15.965Z,15.25
2022-12-03T03:18:44.055Z,14.10
2022-12-03T03:21:13.256Z,13.07
2022-12-03T03:23:40.049Z,15.70
2022-12-03T03:26:14.059Z,15.95
2022-12-03T03:28:45.008Z,16.35
2022-12-03T03:31:16.522Z,14.73
2022-12-03T03:33:45.386Z,14.02
2022-12-03T03:36:14.645Z,13.57
2022-12-03T03:38:45.095Z,13.48
2022-12-03T03:41:13.555Z,12.13
2022-12-03T03:43:42.450Z,13.68
2022-12-03T03:46:09.859Z,12.10
2022-12-03T03:48:36.688Z,11.85
2022-12-03T03:51:09.677Z,12.98
2022-12-03T03:53:40.519Z,13.50
2022-12-03T03:56:08.327Z,11.57
2022-12-03T03:58:35.606Z,12.50
2022-12-03T04:01:02.489Z,12.23
2022-12-03T04:03:29.353Z,12.32
2022-12-03T04:05:56.259Z,11.68
2022-12-03T04:08:23.192Z,12.15
2022-12-03T04:11:08.527Z,11.07
2022-12-03T04:13:35.280Z,12.23
2022-12-03T04:16:02.260Z,12.10
2022-12-03T04:18:44.159Z,11.85
2022-12-03T04:21:33.842Z,14.20
2022-12-03T04:24:02.995Z,14.15
2022-12-03T04:26:48.492Z,12.93
2022-12-03T04:29:16.494Z,12.00
2022-12-03T04:32:05.910Z,13.85
2022-12-03T04:34:52.211Z,12.85
2022-12-03T04:37:19.712Z,15.25
2022-12-03T04:39:46.614Z,14.52
2022-12-03T04:42:13.489Z,13.25
2022-12-03T04:44:43.237Z,14.27
2022-12-03T04:47:16.052Z,15.70
2022-12-03T04:49:47.548Z,13.18
2022-12-03T04:52:18.174Z,13.02
2022-12-03T04:54:45.733Z,13.23
2022-12-03T04:57:15.687Z,14.27
2022-12-03T04:59:48.032Z,15.05
2022-12-03T05:02:17.943Z,14.45
2022-12-03T05:04:44.743Z,14.05
2022-12-03T05:07:11.569Z,13.05
2022-12-03T05:09:38.411Z,13.10
2022-12-03T05:12:07.409Z,12.80
2022-12-03T05:14:34.187Z,14.50
2022-12-03T05:17:07.115Z,15.73
2022-12-03T05:19:52.477Z,14.68
2022-12-03T05:22:19.383Z,13.00
2022-12-03T05:24:46.155Z,14.85
2022-12-03T05:27:23.919Z,14.13
2022-12-03T05:29:51.222Z,15.15
2022-12-03T05:32:18.149Z,14.75
2022-12-03T05:34:44.951Z,14.30
2022-12-03T05:37:17.125Z,14.68
2022-12-03T05:39:45.845Z,9.98
2022-12-03T05:42:33.867Z,13.10
2022-12-03T05:45:03.575Z,13.65
2022-12-03T05:47:33.472Z,15.05
2022-12-03T05:50:00.393Z,15.05
2022-12-03T05:52:27.185Z,13.80
2022-12-03T05:54:56.756Z,15.55
2022-12-03T05:57:24.346Z,14.45
2022-12-03T05:59:51.242Z,15.07
2022-12-03T06:02:18.124Z,15.48
2022-12-03T06:04:45.256Z,14.32
2022-12-03T06:07:14.151Z,14.88
2022-12-03T06:09:41.428Z,13.98
2022-12-03T06:12:17.242Z,15.20
2022-12-03T06:14:45.340Z,16.63
2022-12-03T06:17:14.667Z,15.35
2022-12-03T06:19:46.494Z,18.63
2022-12-03T06:22:14.650Z,16.15
2022-12-03T06:24:43.032Z,15.57
2022-12-03T06:27:17.636Z,14.98
2022-12-03T06:29:44.536Z,15.73
2022-12-03T06:32:11.394Z,17.13
2022-12-03T06:34:38.374Z,16.98
2022-12-03T06:37:05.178Z,15.00
2022-12-03T06:39:34.039Z,13.10
2022-12-03T06:42:01.097Z,14.75
2022-12-03T06:44:30.303Z,12.55
2022-12-03T06:47:03.205Z,13.95
2022-12-03T06:49:30.042Z,15.18
2022-12-03T06:51:59.803Z,15.20
2022-12-03T06:54:26.672Z,12.95
2022-12-03T06:56:53.470Z,15.63
2022-12-03T06:59:20.372Z,18.02
2022-12-03T07:01:47.207Z,18.55
2022-12-03T07:04:14.360Z,17.30
2022-12-03T07:06:47.400Z,19.13
2022-12-03T07:09:17.524Z,16.52
2022-12-03T07:11:44.287Z,17.85
2022-12-03T07:14:13.880Z,18.90
2022-12-03T07:16:43.532Z,16.80
2022-12-03T07:19:11.079Z,18.00
2022-12-03T07:21:37.961Z,17.60
2022-12-03T07:24:05.090Z,17.15
2022-12-03T07:26:32.205Z,17.95
2022-12-03T07:28:59.364Z,17.13
2022-12-03T07:31:26.403Z,17.70
2022-12-03T07:33:53.466Z,16.63
2022-12-03T07:36:20.642Z,15.48
2022-12-03T07:38:47.451Z,15.70
2022-12-03T07:41:16.634Z,14.13
2022-12-03T07:43:45.404Z,13.48
2022-12-03T07:46:15.670Z,14.45
2022-12-03T07:48:45.808Z,12.23
2022-12-03T07:51:15.162Z,13.30
2022-12-03T07:53:42.473Z,14.40
2022-12-03T07:56:09.449Z,13.02
2022-12-03T07:58:36.227Z,13.18
2022-12-03T08:01:03.273Z,13.32
2022-12-03T08:03:30.111Z,14.05
2022-12-03T08:05:56.842Z,12.43
2022-12-03T08:08:24.769Z,12.73
2022-12-03T08:10:54.261Z,13.13
2022-12-03T08:13:21.110Z,13.40
2022-12-03T08:15:47.930Z,14.43
2022-12-03T08:18:25.097Z,16.60
2022-12-03T08:20:52.576Z,15.90
2022-12-03T08:23:21.850Z,14.57
2022-12-03T08:25:54.398Z,15.30
2022-12-03T08:28:26.509Z,15.40
2022-12-03T08:31:26.867Z,15.32
2022-12-03T08:34:15.815Z,16.75
2022-12-03T08:36:42.927Z,15.68
2022-12-03T08:39:28.720Z,13.48
2022-12-03T08:42:29.453Z,13.73
2022-12-03T08:45:17.930Z,13.98
2022-12-03T08:47:44.998Z,12.90
2022-12-03T08:50:33.254Z,12.02
2022-12-03T08:53:13.463Z,12.65
2022-12-03T08:55:56.025Z,12.93
2022-12-03T08:58:38.284Z,13.95
2022-12-03T09:01:11.298Z,13.45
2022-12-03T09:04:15.428Z,14.75
2022-12-03T09:06:42.579Z,13.95
2022-12-03T09:09:09.378Z,13.70
2022-12-03T09:11:36.956Z,14.05
2022-12-03T09:14:06.316Z,14.88
2022-12-03T09:16:33.207Z,12.55
2022-12-03T09:19:00.161Z,12.80
2022-12-03T09:21:26.908Z,13.85
2022-12-03T09:23:55.058Z,12.32
2022-12-03T09:26:21.757Z,12.90
2022-12-03T09:28:48.555Z,11.88
2022-12-03T09:31:16.891Z,12.05
2022-12-03T09:34:02.172Z,11.57
2022-12-03T09:36:29.384Z,12.10
2022-12-03T09:38:56.716Z,12.98
2022-12-03T09:41:33.279Z,11.82
2022-12-03T09:44:04.891Z,12.05
2022-12-03T09:46:36.507Z,11.73
2022-12-03T09:49:12.283Z,12.30
2022-12-03T09:51:41.099Z,13.02
2022-12-03T09:54:08.027Z,12.77
2022-12-03T09:56:38.604Z,14.25
2022-12-03T09:59:16.661Z,13.82
2022-12-03T10:01:44.213Z,13.75
2022-12-03T10:04:11.195Z,15.52
2022-12-03T10:06:45.305Z,9.05
2022-12-03T10:09:14.917Z,14.43
2022-12-03T10:11:41.792Z,13.75
2022-12-03T10:14:12.212Z,15.10
2022-12-03T10:16:40.541Z,16.10
2022-12-03T10:19:18.305Z,16.58
2022-12-03T10:21:50.820Z,17.33
2022-12-03T10:26:52.997Z,15.63
2022-12-03T10:29:21.170Z,16.90
2022-12-03T10:32:05.051Z,16.42
2022-12-03T10:34:42.796Z,17.10
2022-12-03T10:37:23.217Z,16.50
2022-12-03T10:39:56.052Z,19.98
2022-12-03T10:42:26.753Z,18.75
2022-12-03T10:45:17.354Z,20.17
2022-12-03T10:48:25.954Z,19.98
2022-12-03T10:50:56.493Z,21.67
2022-12-03T10:53:29.101Z,21.05
2022-12-03T10:58:36.287Z,22.38
2022-12-03T11:01:13.688Z,19.05
2022-12-03T11:03:41.040Z,21.92
2022-12-03T11:06:19.438Z,20.77
2022-12-03T11:08:54.733Z,19.77
2022-12-03T11:11:27.694Z,20.73
2022-12-03T11:14:04.742Z,20.38
2022-12-03T11:16:41.184Z,19.13
2022-12-03T11:19:40.582Z,19.67
2022-12-03T11:22:09.948Z,20.02
2022-12-03T11:24:40.465Z,19.55
2022-12-03T11:27:17.660Z,21.08
2022-12-03T11:29:52.106Z,20.38
2022-12-03T11:32:43.919Z,20.10
2022-12-03T11:35:16.352Z,19.52
2022-12-03T11:37:43.177Z,20.48
2022-12-03T11:40:19.818Z,18.23
2022-12-03T11:42:48.769Z,17.60
2022-12-03T11:45:19.793Z,17.65
2022-12-03T11:48:01.475Z,16.77
2022-12-03T11:50:28.320Z,17.48
2022-12-03T11:53:17.452Z,18.25
2022-12-03T11:55:48.936Z,17.10
2022-12-03T11:58:24.457Z,17.15
2022-12-03T12:00:56.617Z,17.38
2022-12-03T12:03:25.937Z,17.20
2022-12-03T12:06:04.499Z,17.33
2022-12-03T12:08:32.049Z,16.13
2022-12-03T12:10:59.145Z,20.48
2022-12-03T12:13:49.905Z,16.33
2022-12-03T12:16:52.385Z,15.20
2022-12-03T12:19:34.906Z,19.83
2022-12-03T12:22:25.415Z,17.92
2022-12-03T12:25:02.712Z,19.70
2022-12-03T12:27:35.572Z,21.10
2022-12-03T12:30:14.412Z,22.40
2022-12-03T12:32:54.912Z,20.45
2022-12-03T12:35:26.098Z,19.25
2022-12-03T12:38:03.709Z,19.02
2022-12-03T12:40:34.523Z,20.98
2022-12-03T12:43:15.304Z,22.20
2022-12-03T12:45:44.021Z,22.02
2022-12-03T12:48:26.181Z,22.23
2022-12-03T12:51:09.147Z,21.50
2022-12-03T12:53:37.625Z,22.85
2022-12-03T12:56:32.302Z,22.35
2022-12-03T12:59:09.790Z,21.20
2022-12-03T13:01:37.097Z,20.90
2022-12-03T13:04:13.910Z,20.75
2022-12-03T13:06:42.231Z,23.00
2022-12-03T13:09:20.551Z,23.40
2022-12-03T13:11:53.080Z,21.13
2022-12-03T13:16:53.501Z,20.95
2022-12-03T13:19:24.880Z,20.50
2022-12-03T13:21:54.037Z,20.42
2022-12-03T13:24:43.962Z,22.17
2022-12-03T13:27:36.016Z,20.38
2022-12-03T13:30:13.988Z,21.65
2022-12-03T13:32:42.619Z,20.90
2022-12-03T13:35:35.896Z,19.30
2022-12-03T13:38:09.179Z,19.88
2022-12-03T13:40:37.966Z,19.35
2022-12-03T13:43:12.410Z,18.27
2022-12-03T13:45:41.421Z,21.42
2022-12-03T13:48:26.588Z,20.50
2022-12-03T13:50:54.173Z,22.08
2022-12-03T13:53:28.370Z,21.25
2022-12-03T13:56:14.059Z,19.98
2022-12-03T13:58:41.037Z,19.60
2022-12-03T14:01:11.992Z,20.10
2022-12-03T14:03:38.951Z,19.60
2022-12-03T14:06:06.050Z,23.27
2022-12-03T14:08:32.943Z,23.05
2022-12-03T14:11:00.842Z,23.70
2022-12-03T14:13:28.095Z,24.20
2022-12-03T14:15:55.310Z,23.30
2022-12-03T14:18:22.497Z,22.50
2022-12-03T14:20:49.305Z,20.98
2022-12-03T14:23:16.464Z,24.25
2022-12-03T14:25:49.640Z,23.48
2022-12-03T14:28:16.855Z,23.75
2022-12-03T14:30:44.203Z,24.50
2022-12-03T14:33:10.908Z,24.63
2022-12-03T14:35:40.552Z,26.13
2022-12-03T14:38:10.413Z,23.60
2022-12-03T14:40:40.080Z,26.33
2022-12-03T14:43:07.025Z,24.70
2022-12-03T14:45:33.903Z,24.45
2022-12-03T14:48:00.970Z,24.08
2022-12-03T14:50:28.070Z,25.30
2022-12-03T14:52:57.714Z,24.77
2022-12-03T14:55:27.420Z,24.60
2022-12-03T14:58:01.692Z,26.45
2022-12-03T15:00:28.431Z,25.40
2022-12-03T15:02:55.429Z,26.70
2022-12-03T15:05:28.178Z,26.05
2022-12-03T15:07:58.224Z,26.45
2022-12-03T15:10:25.002Z,25.67
2022-12-03T15:12:51.891Z,26.65
2022-12-03T15:15:18.623Z,26.17
2022-12-03T15:17:50.973Z,25.02
2022-12-03T15:20:20.542Z,27.17
2022-12-03T15:22:47.897Z,25.73
2022-12-03T15:25:14.854Z,26.90
2022-12-03T15:27:42.663Z,26.27
2022-12-03T15:30:09.903Z,24.25
2022-12-03T15:32:36.648Z,25.23
2022-12-03T15:35:03.432Z,25.77
2022-12-03T15:37:37.783Z,25.17
2022-12-03T15:40:12.027Z,23.30
2022-12-03T15:42:39.090Z,26.42
2022-12-03T15:45:15.341Z,24.92
2022-12-03T15:47:43.703Z,23.27
2022-12-03T15:50:10.967Z,26.25
2022-12-03T15:52:42.571Z,25.15
2022-12-03T15:55:10.295Z,27.30
2022-12-03T15:57:38.292Z,25.13
2022-12-03T16:00:06.637Z,24.52
2022-12-03T16:02:36.342Z,26.38
2022-12-03T16:05:05.724Z,26.90
2022-12-03T16:07:33.013Z,26.58
2022-12-03T16:09:59.913Z,26.08
2022-12-03T16:12:26.715Z,27.80
2022-12-03T16:14:53.607Z,28.00
2022-12-03T16:17:21.045Z,27.92
2022-12-03T16:19:49.105Z,29.60
2022-12-03T16:22:19.400Z,29.17
2022-12-03T16:24:48.636Z,28.38
2022-12-03T16:27:15.852Z,29.98
2022-12-03T16:29:42.648Z,29.58
2022-12-03T16:32:09.397Z,30.60
2022-12-03T16:34:36.394Z,31.08
2022-12-03T16:37:04.984Z,32.25
2022-12-03T16:39:32.476Z,31.00
2022-12-03T16:41:59.883Z,28.92
2022-12-03T16:44:47.443Z,29.13
2022-12-03T16:47:14.380Z,29.33
2022-12-03T16:49:41.270Z,31.98
2022-12-03T16:52:09.642Z,31.33
2022-12-03T16:54:36.569Z,33.55
2022-12-03T16:59:44.590Z,30.15
2022-12-03T17:02:13.070Z,30.75
2022-12-03T17:04:43.995Z,28.33
2022-12-03T17:07:21.948Z,30.05
2022-12-03T17:09:52.325Z,29.08
2022-12-03T17:12:19.963Z,29.65
2022-12-03T17:14:50.194Z,28.83
2022-12-03T17:17:18.685Z,26.83
2022-12-03T17:19:45.836Z,24.70
2022-12-03T17:22:14.717Z,27.95
2022-12-03T17:24:43.020Z,26.90
2022-12-03T17:27:11.934Z,26.27
2022-12-03T17:29:43.332Z,27.70
2022-12-03T17:32:10.387Z,26.98
2022-12-03T17:34:37.333Z,29.00
2022-12-03T17:37:07.274Z,27.15
2022-12-03T17:39:34.770Z,30.92
2022-12-03T17:42:02.783Z,28.92
2022-12-03T17:44:29.823Z,30.35
2022-12-03T17:46:56.908Z,29.65
2022-12-03T17:49:31.563Z,28.13
2022-12-03T17:51:59.075Z,26.90
2022-12-03T17:54:43.258Z,26.63
2022-12-03T17:57:18.656Z,29.45
2022-12-03T17:59:45.683Z,28.13
2022-12-03T18:02:12.680Z,27.40
2022-12-03T18:04:39.704Z,28.33
2022-12-03T18:07:06.662Z,29.10
2022-12-03T18:09:33.753Z,27.70
2022-12-03T18:12:00.905Z,28.08
2022-12-03T18:14:28.059Z,27.83
2022-12-03T18:16:55.133Z,27.08
2022-12-03T18:19:22.653Z,27.90
2022-12-03T18:21:49.656Z,27.42
2022-12-03T18:24:17.913Z,28.15
2022-12-03T18:26:44.860Z,28.08
2022-12-03T18:29:11.900Z,29.50
2022-12-03T18:31:39.107Z,29.13
2022-12-03T18:34:05.974Z,27.30
2022-12-03T18:36:37.330Z,28.48
2022-12-03T18:39:06.191Z,30.75
2022-12-03T18:41:34.140Z,29.95
2022-12-03T18:44:08.950Z,28.15
2022-12-03T18:49:23.049Z,28.08
2022-12-03T18:51:58.702Z,30.85
2022-12-03T18:54:26.464Z,31.27
2022-12-03T18:56:54.568Z,31.33
2022-12-03T18:59:21.423Z,27.83
2022-12-03T19:01:49.966Z,26.52
2022-12-03T19:04:17.882Z,26.63
2022-12-03T19:06:44.816Z,27.55
2022-12-03T19:09:11.992Z,24.83
2022-12-03T19:11:41.946Z,24.15
2022-12-03T19:14:12.277Z,24.98
2022-12-03T19:16:40.325Z,27.65
2022-12-03T19:19:08.975Z,28.10
2022-12-03T19:21:36.550Z,27.52
2022-12-03T19:24:23.653Z,29.13
2022-12-03T19:26:54.901Z,28.30
2022-12-03T19:29:25.658Z,27.38
2022-12-03T19:31:53.486Z,27.50
2022-12-03T19:34:21.743Z,26.77
2022-12-03T19:36:51.202Z,27.85
2022-12-03T19:39:24.437Z,28.25
2022-12-03T19:41:51.316Z,26.77
2022-12-03T19:44:19.061Z,29.60
2022-12-03T19:46:51.863Z,26.50
2022-12-03T19:49:29.063Z,25.25
2022-12-03T19:51:56.809Z,25.52
2022-12-03T19:54:24.652Z,25.20
2022-12-03T19:56:51.791Z,23.83
2022-12-03T19:59:18.790Z,21.63
2022-12-03T20:01:45.919Z,22.48
2022-12-03T20:04:16.089Z,22.83
2022-12-03T20:06:43.237Z,21.92
2022-12-03T20:09:18.568Z,20.50
2022-12-03T20:11:46.254Z,23.17
2022-12-03T20:14:17.094Z,23.77
2022-12-03T20:16:45.452Z,26.23
2022-12-03T20:19:16.256Z,27.20
2022-12-03T20:21:43.918Z,26.67
2022-12-03T20:24:17.246Z,26.88
2022-12-03T20:26:44.359Z,26.13
2022-12-03T20:29:14.281Z,27.42
2022-12-03T20:31:43.313Z,28.90
2022-12-03T20:34:15.821Z,29.95
2022-12-03T20:36:44.477Z,28.80
2022-12-03T20:39:15.540Z,29.50
2022-12-03T20:41:44.454Z,27.23
2022-12-03T20:44:11.750Z,26.48
2022-12-03T20:46:39.870Z,27.70
2022-12-03T20:49:08.052Z,27.45
2022-12-03T20:51:38.403Z,28.05
2022-12-03T20:54:08.238Z,27.48
2022-12-03T20:56:39.592Z,27.88
2022-12-03T20:59:11.384Z,30.17
2022-12-03T21:01:39.319Z,31.05
2022-12-03T21:04:07.859Z,29.48
2022-12-03T21:06:37.260Z,28.55
2022-12-03T21:09:08.344Z,31.48
2022-12-03T21:11:36.575Z,28.52
2022-12-03T21:14:05.051Z,28.10
2022-12-03T21:17:07.905Z,29.63
2022-12-03T21:19:33.922Z,27.38
2022-12-03T21:22:05.473Z,25.30
2022-12-03T21:24:36.957Z,28.13
2022-12-03T21:27:06.522Z,31.23
2022-12-03T21:29:35.131Z,35.15
2022-12-03T21:32:03.020Z,34.75
2022-12-03T21:34:35.903Z,32.33
2022-12-03T21:37:06.698Z,32.60
2022-12-03T21:39:37.287Z,32.88
2022-12-03T21:42:34.718Z,33.72
2022-12-03T21:44:58.821Z,30.60
2022-12-03T21:47:26.277Z,28.02
2022-12-03T21:49:53.337Z,27.67
2022-12-03T21:52:20.662Z,26.80
2022-12-03T21:54:47.701Z,28.67
2022-12-03T21:57:15.122Z,30.02
2022-12-03T21:59:42.335Z,28.77
2022-12-03T22:02:12.858Z,27.83
2022-12-03T22:04:42.734Z,27.42
2022-12-03T22:07:10.430Z,29.85
2022-12-03T22:09:37.551Z,29.25
2022-12-03T22:12:04.689Z,27.80
2022-12-03T22:14:31.836Z,26.48
2022-12-03T22:16:59.238Z,29.88
2022-12-03T22:19:27.064Z,29.75
2022-12-03T22:21:53.940Z,29.55
2022-12-03T22:24:21.088Z,28.08
2022-12-03T22:26:48.334Z,26.88
2022-12-03T22:29:15.743Z,30.27
2022-12-03T22:31:42.660Z,28.85
2022-12-03T22:34:09.479Z,27.65
2022-12-03T22:36:36.473Z,27.92
2022-12-03T22:39:06.812Z,28.25
2022-12-03T22:41:36.659Z,29.08
2022-12-03T22:44:03.536Z,26.50
2022-12-03T22:46:31.162Z,28.05
2022-12-03T22:49:01.812Z,27.98
2022-12-03T22:51:32.585Z,26.95
2022-12-03T22:54:01.969Z,27.67
2022-12-03T22:56:30.740Z,27.00
2022-12-03T22:58:59.633Z,26.63
2022-12-03T23:01:35.645Z,29.98
2022-12-03T23:04:04.959Z,25.77
2022-12-03T23:06:32.256Z,26.58
2022-12-03T23:08:59.717Z,26.70
2022-12-03T23:11:28.493Z,26.63
2022-12-03T23:13:59.890Z,26.25
2022-12-03T23:16:30.493Z,26.70
2022-12-03T23:19:02.957Z,25.90
2022-12-03T23:21:34.322Z,25.38
2022-12-03T23:24:02.923Z,26.42
2022-12-03T23:26:33.563Z,26.58
2022-12-03T23:29:00.457Z,26.75
2022-12-03T23:31:30.306Z,28.67
2022-12-03T23:33:58.303Z,26.73
2022-12-03T23:36:28.141Z,25.05
2022-12-03T23:38:55.685Z,28.77
2022-12-03T23:41:24.049Z,29.33
2022-12-03T23:43:54.324Z,26.85
2022-12-03T23:46:24.598Z,25.08
2022-12-03T23:48:51.897Z,26.85
2022-12-03T23:51:27.488Z,23.20
2022-12-03T23:53:55.805Z,30.88
2022-12-03T23:56:29.353Z,28.55
2022-12-03T23:58:59.747Z,23.15
